createdAt,value
2018-01-15T00:00:44.712Z,1007.79
2018-01-15T00:01:44.651Z,1007.78
2018-01-15T00:03:37.996Z,1007.72
2018-01-15T00:04:37.968Z,1007.73
2018-01-15T00:06:31.325Z,1007.72
2018-01-15T00:07:31.294Z,1007.73
2018-01-15T00:09:24.630Z,1007.71
2018-01-15T00:10:24.606Z,1007.68
2018-01-15T00:12:17.956Z,1007.72
2018-01-15T00:13:17.920Z,1007.65
2018-01-15T00:15:11.275Z,1007.66
2018-01-15T00:16:11.246Z,1007.65
2018-01-15T00:18:04.181Z,1007.66
2018-01-15T00:20:57.335Z,1007.68
2018-01-15T00:21:57.335Z,1007.69
2018-01-15T00:23:50.659Z,1007.67
2018-01-15T00:24:50.614Z,1007.68
2018-01-15T00:26:43.954Z,1007.71
2018-01-15T00:27:43.892Z,1007.73
2018-01-15T00:29:37.240Z,1007.74
2018-01-15T00:30:37.199Z,1007.72
2018-01-15T00:32:30.529Z,1007.69
2018-01-15T00:33:30.500Z,1007.69
2018-01-15T00:35:23.866Z,1007.70
2018-01-15T00:36:23.789Z,1007.69
2018-01-15T00:38:17.111Z,1007.70
2018-01-15T00:39:17.081Z,1007.67
2018-01-15T00:41:10.424Z,1007.68
2018-01-15T00:42:10.376Z,1007.64
2018-01-15T00:44:03.691Z,1007.61
2018-01-15T00:45:03.672Z,1007.57
2018-01-15T00:46:57.011Z,1007.56
2018-01-15T00:47:56.971Z,1007.55
2018-01-15T00:49:50.319Z,1007.59
2018-01-15T00:50:50.261Z,1007.54
2018-01-15T00:52:43.608Z,1007.55
2018-01-15T00:53:43.563Z,1007.55
2018-01-15T00:55:36.909Z,1007.54
2018-01-15T00:56:36.858Z,1007.54
2018-01-15T00:58:30.189Z,1007.50
2018-01-15T00:59:30.149Z,1007.52
2018-01-15T01:01:23.494Z,1007.55
2018-01-15T01:02:23.450Z,1007.56
2018-01-15T01:04:16.782Z,1007.56
2018-01-15T01:05:16.744Z,1007.61
2018-01-15T01:07:10.069Z,1007.61
2018-01-15T01:08:10.039Z,1007.59
2018-01-15T01:10:03.388Z,1007.62
2018-01-15T01:11:03.329Z,1007.61
2018-01-15T01:12:56.659Z,1007.57
2018-01-15T01:13:56.647Z,1007.58
2018-01-15T01:15:49.968Z,1007.54
2018-01-15T01:16:49.920Z,1007.55
2018-01-15T01:18:43.240Z,1007.53
2018-01-15T01:19:43.224Z,1007.53
2018-01-15T01:21:36.654Z,1007.52
2018-01-15T01:22:36.509Z,1007.51
2018-01-15T01:24:29.847Z,1007.54
2018-01-15T01:25:29.801Z,1007.52
2018-01-15T01:27:23.144Z,1007.46
2018-01-15T01:28:23.094Z,1007.45
2018-01-15T01:30:16.415Z,1007.45
2018-01-15T01:31:16.386Z,1007.43
2018-01-15T01:33:09.721Z,1007.40
2018-01-15T01:34:09.681Z,1007.38
2018-01-15T01:36:03.008Z,1007.36
2018-01-15T01:37:02.978Z,1007.40
2018-01-15T01:38:56.325Z,1007.34
2018-01-15T01:39:56.267Z,1007.36
2018-01-15T01:41:49.600Z,1007.32
2018-01-15T01:42:49.573Z,1007.29
2018-01-15T01:44:42.925Z,1007.28
2018-01-15T01:45:42.875Z,1007.24
2018-01-15T01:47:36.185Z,1007.19
2018-01-15T01:48:36.159Z,1007.15
2018-01-15T01:50:29.493Z,1007.22
2018-01-15T01:51:29.448Z,1007.20
2018-01-15T01:53:22.766Z,1007.20
2018-01-15T01:54:22.740Z,1007.23
2018-01-15T01:56:16.083Z,1007.17
2018-01-15T01:57:16.044Z,1007.20
2018-01-15T01:59:09.380Z,1007.20
2018-01-15T02:00:09.341Z,1007.17
2018-01-15T02:02:02.692Z,1007.22
2018-01-15T02:03:02.637Z,1007.21
2018-01-15T02:04:55.458Z,1007.19
2018-01-15T02:05:55.430Z,1007.15
2018-01-15T02:07:48.766Z,1007.10
2018-01-15T02:08:48.728Z,1007.08
2018-01-15T02:10:42.057Z,1007.03
2018-01-15T02:11:42.063Z,1007.03
2018-01-15T02:13:35.371Z,1007.04
2018-01-15T02:14:35.321Z,1006.98
2018-01-15T02:16:29.642Z,1007.02
2018-01-15T02:17:29.626Z,1006.94
2018-01-15T02:19:22.957Z,1006.98
2018-01-15T02:20:22.919Z,1006.93
2018-01-15T02:22:16.240Z,1006.95
2018-01-15T02:23:16.213Z,1006.84
2018-01-15T02:25:09.543Z,1006.86
2018-01-15T02:26:09.503Z,1006.85
2018-01-15T02:28:02.328Z,1006.86
2018-01-15T02:29:02.297Z,1006.83
2018-01-15T02:30:55.667Z,1006.81
2018-01-15T02:31:55.636Z,1006.76
2018-01-15T02:33:48.956Z,1006.80
2018-01-15T02:34:49.009Z,1006.80
2018-01-15T02:36:42.258Z,1006.84
2018-01-15T02:37:42.218Z,1006.84
2018-01-15T02:39:36.159Z,1006.94
2018-01-15T02:40:36.124Z,1006.91
2018-01-15T02:42:29.479Z,1007.01
2018-01-15T02:43:29.437Z,1007.02
2018-01-15T02:45:22.764Z,1007.01
2018-01-15T02:46:22.744Z,1006.99
2018-01-15T02:48:16.060Z,1007.02
2018-01-15T02:49:16.031Z,1007.02
2018-01-15T02:51:09.366Z,1007.03
2018-01-15T02:52:09.343Z,1007.02
2018-01-15T02:54:02.670Z,1007.03
2018-01-15T02:55:02.633Z,1007.01
2018-01-15T02:56:56.003Z,1007.03
2018-01-15T02:57:55.980Z,1007.06
2018-01-15T02:59:49.323Z,1007.01
2018-01-15T03:00:49.279Z,1006.98
2018-01-15T03:02:42.616Z,1006.96
2018-01-15T03:03:42.579Z,1006.88
2018-01-15T03:05:35.905Z,1006.84
2018-01-15T03:06:35.866Z,1006.85
2018-01-15T03:08:29.192Z,1006.76
2018-01-15T03:09:29.167Z,1006.75
2018-01-15T03:11:22.512Z,1006.76
2018-01-15T03:12:22.478Z,1006.75
2018-01-15T03:14:15.791Z,1006.78
2018-01-15T03:15:15.765Z,1006.73
2018-01-15T03:17:09.121Z,1006.70
2018-01-15T03:18:09.067Z,1006.67
2018-01-15T03:20:02.381Z,1006.60
2018-01-15T03:21:02.357Z,1006.59
2018-01-15T03:22:55.710Z,1006.61
2018-01-15T03:23:55.661Z,1006.66
2018-01-15T03:25:48.982Z,1006.68
2018-01-15T03:26:48.960Z,1006.63
2018-01-15T03:28:42.335Z,1006.57
2018-01-15T03:29:42.254Z,1006.59
2018-01-15T03:31:35.592Z,1006.57
2018-01-15T03:32:35.553Z,1006.59
2018-01-15T03:34:28.996Z,1006.56
2018-01-15T03:35:28.857Z,1006.57
2018-01-15T03:37:22.177Z,1006.54
2018-01-15T03:38:22.163Z,1006.52
2018-01-15T03:40:15.496Z,1006.52
2018-01-15T03:41:15.467Z,1006.54
2018-01-15T03:43:08.782Z,1006.49
2018-01-15T03:44:08.775Z,1006.47
2018-01-15T03:46:02.109Z,1006.52
2018-01-15T03:47:02.063Z,1006.49
2018-01-15T03:48:55.391Z,1006.50
2018-01-15T03:49:55.367Z,1006.48
2018-01-15T03:51:48.702Z,1006.46
2018-01-15T03:52:48.663Z,1006.38
2018-01-15T03:54:41.976Z,1006.38
2018-01-15T03:55:41.951Z,1006.36
2018-01-15T03:57:35.310Z,1006.32
2018-01-15T03:58:35.256Z,1006.31
2018-01-15T04:00:28.575Z,1006.32
2018-01-15T04:01:28.551Z,1006.34
2018-01-15T04:03:21.903Z,1006.29
2018-01-15T04:04:21.864Z,1006.24
2018-01-15T04:06:15.180Z,1006.21
2018-01-15T04:07:15.154Z,1006.16
2018-01-15T04:09:08.493Z,1006.17
2018-01-15T04:10:08.458Z,1006.16
2018-01-15T04:12:01.274Z,1006.15
2018-01-15T04:13:01.253Z,1006.10
2018-01-15T04:14:54.584Z,1006.02
2018-01-15T04:15:54.565Z,1006.05
2018-01-15T04:17:47.863Z,1006.07
2018-01-15T04:18:47.841Z,1006.10
2018-01-15T04:20:41.189Z,1006.04
2018-01-15T04:21:41.142Z,1005.98
2018-01-15T04:23:34.465Z,1005.88
2018-01-15T04:24:34.459Z,1005.93
2018-01-15T04:26:27.778Z,1005.91
2018-01-15T04:27:27.739Z,1005.89
2018-01-15T04:29:20.564Z,1005.95
2018-01-15T04:30:20.535Z,1005.90
2018-01-15T04:32:13.883Z,1005.88
2018-01-15T04:33:13.836Z,1005.86
2018-01-15T04:35:07.170Z,1005.86
2018-01-15T04:36:07.140Z,1005.86
2018-01-15T04:38:00.481Z,1005.81
2018-01-15T04:39:00.440Z,1005.84
2018-01-15T04:40:53.754Z,1005.83
2018-01-15T04:41:53.734Z,1005.78
2018-01-15T04:43:47.076Z,1005.74
2018-01-15T04:44:47.030Z,1005.80
2018-01-15T04:46:40.348Z,1005.74
2018-01-15T04:47:40.330Z,1005.74
2018-01-15T04:49:33.664Z,1005.71
2018-01-15T04:50:33.624Z,1005.67
2018-01-15T04:52:26.945Z,1005.66
2018-01-15T04:53:26.931Z,1005.68
2018-01-15T04:55:20.273Z,1005.69
2018-01-15T04:56:20.226Z,1005.70
2018-01-15T04:58:13.551Z,1005.69
2018-01-15T04:59:13.529Z,1005.74
2018-01-15T05:01:06.870Z,1005.66
2018-01-15T05:02:06.828Z,1005.69
2018-01-15T05:04:00.160Z,1005.62
2018-01-15T05:05:00.134Z,1005.60
2018-01-15T05:06:53.474Z,1005.56
2018-01-15T05:07:53.425Z,1005.54
2018-01-15T05:09:46.750Z,1005.55
2018-01-15T05:10:46.720Z,1005.58
2018-01-15T05:12:40.081Z,1005.56
2018-01-15T05:13:40.038Z,1005.57
2018-01-15T05:15:33.353Z,1005.55
2018-01-15T05:16:33.329Z,1005.53
2018-01-15T05:18:26.659Z,1005.49
2018-01-15T05:19:26.620Z,1005.52
2018-01-15T05:21:19.968Z,1005.48
2018-01-15T05:22:19.920Z,1005.48
2018-01-15T05:24:13.257Z,1005.48
2018-01-15T05:25:13.221Z,1005.47
2018-01-15T05:27:06.545Z,1005.46
2018-01-15T05:28:06.518Z,1005.49
2018-01-15T05:29:59.851Z,1005.53
2018-01-15T05:30:59.810Z,1005.57
2018-01-15T05:32:52.635Z,1005.54
2018-01-15T05:33:52.606Z,1005.53
2018-01-15T05:35:45.937Z,1005.56
2018-01-15T05:36:45.898Z,1005.51
2018-01-15T05:38:38.735Z,1005.63
2018-01-15T05:39:38.713Z,1005.63
2018-01-15T05:41:32.065Z,1005.65
2018-01-15T05:42:32.008Z,1005.62
2018-01-15T05:44:25.329Z,1005.66
2018-01-15T05:45:25.302Z,1005.64
2018-01-15T05:47:18.639Z,1005.59
2018-01-15T05:48:18.595Z,1005.56
2018-01-15T05:50:11.929Z,1005.59
2018-01-15T05:51:11.907Z,1005.60
2018-01-15T05:53:04.742Z,1005.55
2018-01-15T05:54:04.703Z,1005.50
2018-01-15T05:55:58.036Z,1005.50
2018-01-15T05:56:57.995Z,1005.52
2018-01-15T05:58:51.325Z,1005.53
2018-01-15T05:59:51.284Z,1005.53
2018-01-15T06:01:44.612Z,1005.52
2018-01-15T06:02:44.588Z,1005.55
2018-01-15T06:04:37.428Z,1005.50
2018-01-15T06:05:37.385Z,1005.49
2018-01-15T06:07:30.708Z,1005.52
2018-01-15T06:08:30.677Z,1005.51
2018-01-15T06:10:24.024Z,1005.52
2018-01-15T06:11:23.973Z,1005.48
2018-01-15T06:13:17.300Z,1005.48
2018-01-15T06:14:17.275Z,1005.46
2018-01-15T06:16:10.106Z,1005.40
2018-01-15T06:17:10.081Z,1005.39
2018-01-15T06:19:03.392Z,1005.36
2018-01-15T06:20:03.362Z,1005.40
2018-01-15T06:21:56.698Z,1005.35
2018-01-15T06:22:56.666Z,1005.34
2018-01-15T06:24:49.977Z,1005.34
2018-01-15T06:25:49.954Z,1005.29
2018-01-15T06:27:43.287Z,1005.22
2018-01-15T06:28:43.240Z,1005.26
2018-01-15T06:30:36.579Z,1005.27
2018-01-15T06:31:36.542Z,1005.28
2018-01-15T06:33:29.894Z,1005.25
2018-01-15T06:34:29.850Z,1005.29
2018-01-15T06:36:23.166Z,1005.23
2018-01-15T06:37:23.144Z,1005.26
2018-01-15T06:39:16.471Z,1005.23
2018-01-15T06:40:16.433Z,1005.24
2018-01-15T06:42:09.750Z,1005.20
2018-01-15T06:43:09.723Z,1005.20
2018-01-15T06:45:03.098Z,1005.15
2018-01-15T06:46:03.027Z,1005.12
2018-01-15T06:47:56.347Z,1005.12
2018-01-15T06:48:56.319Z,1005.12
2018-01-15T06:50:49.162Z,1005.12
2018-01-15T06:51:49.114Z,1005.18
2018-01-15T06:53:42.433Z,1005.17
2018-01-15T06:54:42.407Z,1005.19
2018-01-15T06:56:35.747Z,1005.17
2018-01-15T06:57:35.710Z,1005.17
2018-01-15T06:59:29.020Z,1005.21
2018-01-15T07:00:28.993Z,1005.13
2018-01-15T07:02:22.342Z,1005.13
2018-01-15T07:03:22.304Z,1005.12
2018-01-15T07:05:15.630Z,1005.13
2018-01-15T07:06:15.602Z,1005.15
2018-01-15T07:08:08.935Z,1005.23
2018-01-15T07:09:08.890Z,1005.29
2018-01-15T07:11:02.228Z,1005.34
2018-01-15T07:12:02.195Z,1005.29
2018-01-15T07:13:55.548Z,1005.28
2018-01-15T07:14:55.500Z,1005.28
2018-01-15T07:16:48.326Z,1005.24
2018-01-15T07:17:48.307Z,1005.22
2018-01-15T07:19:41.661Z,1005.16
2018-01-15T07:20:41.601Z,1005.20
2018-01-15T07:22:34.441Z,1005.22
2018-01-15T07:23:34.397Z,1005.20
2018-01-15T07:25:27.244Z,1005.31
2018-01-15T07:26:27.203Z,1005.29
2018-01-15T07:28:20.626Z,1005.29
2018-01-15T07:29:20.494Z,1005.22
2018-01-15T07:31:13.825Z,1005.26
2018-01-15T07:32:13.791Z,1005.21
2018-01-15T07:34:07.109Z,1005.18
2018-01-15T07:35:07.081Z,1005.16
2018-01-15T07:37:00.419Z,1005.14
2018-01-15T07:38:00.372Z,1005.16
2018-01-15T07:39:53.695Z,1005.16
2018-01-15T07:40:53.668Z,1005.13
2018-01-15T07:42:47.007Z,1005.13
2018-01-15T07:43:46.968Z,1005.15
2018-01-15T07:45:40.889Z,1005.13
2018-01-15T07:46:40.260Z,1005.12
2018-01-15T07:48:33.102Z,1005.15
2018-01-15T07:49:33.058Z,1005.16
2018-01-15T07:51:26.378Z,1005.13
2018-01-15T07:52:26.349Z,1005.13
2018-01-15T07:54:19.688Z,1005.07
2018-01-15T07:55:19.644Z,1005.03
2018-01-15T07:57:13.971Z,1004.97
2018-01-15T07:58:13.946Z,1005.03
2018-01-15T08:00:07.301Z,1004.95
2018-01-15T08:01:07.275Z,1004.98
2018-01-15T08:03:00.090Z,1004.98
2018-01-15T08:04:00.058Z,1004.97
2018-01-15T08:05:53.410Z,1004.90
2018-01-15T08:06:53.354Z,1004.87
2018-01-15T08:08:46.691Z,1004.90
2018-01-15T08:09:46.660Z,1004.88
2018-01-15T08:11:39.991Z,1004.86
2018-01-15T08:12:39.954Z,1004.84
2018-01-15T08:14:33.269Z,1004.78
2018-01-15T08:15:33.246Z,1004.78
2018-01-15T08:17:26.575Z,1004.81
2018-01-15T08:18:26.538Z,1004.82
2018-01-15T08:20:19.854Z,1004.77
2018-01-15T08:21:19.834Z,1004.73
2018-01-15T08:23:13.180Z,1004.75
2018-01-15T08:24:13.129Z,1004.71
2018-01-15T08:26:06.460Z,1004.68
2018-01-15T08:27:06.433Z,1004.72
2018-01-15T08:28:59.800Z,1004.69
2018-01-15T08:29:59.748Z,1004.68
2018-01-15T08:31:53.070Z,1004.67
2018-01-15T08:32:53.090Z,1004.67
2018-01-15T08:34:46.373Z,1004.61
2018-01-15T08:35:46.328Z,1004.63
2018-01-15T08:37:39.662Z,1004.58
2018-01-15T08:38:39.636Z,1004.56
2018-01-15T08:40:32.991Z,1004.57
2018-01-15T08:41:32.945Z,1004.59
2018-01-15T08:43:26.270Z,1004.54
2018-01-15T08:44:26.243Z,1004.54
2018-01-15T08:46:19.595Z,1004.53
2018-01-15T08:47:19.542Z,1004.50
2018-01-15T08:49:12.876Z,1004.42
2018-01-15T08:50:12.848Z,1004.43
2018-01-15T08:52:06.786Z,1004.37
2018-01-15T08:53:06.145Z,1004.38
2018-01-15T08:54:59.469Z,1004.39
2018-01-15T08:55:59.445Z,1004.41
2018-01-15T08:57:52.775Z,1004.37
2018-01-15T08:58:52.735Z,1004.41
2018-01-15T09:00:46.070Z,1004.39
2018-01-15T09:01:46.050Z,1004.34
2018-01-15T09:03:39.380Z,1004.33
2018-01-15T09:04:39.338Z,1004.28
2018-01-15T09:06:32.658Z,1004.30
2018-01-15T09:07:32.631Z,1004.22
2018-01-15T09:09:25.986Z,1004.22
2018-01-15T09:10:25.926Z,1004.19
2018-01-15T09:12:19.249Z,1004.21
2018-01-15T09:13:19.221Z,1004.15
2018-01-15T09:15:12.557Z,1004.14
2018-01-15T09:16:12.532Z,1004.17
2018-01-15T09:18:05.866Z,1004.05
2018-01-15T09:19:05.815Z,1004.07
2018-01-15T09:20:59.264Z,1004.05
2018-01-15T09:21:59.100Z,1004.05
2018-01-15T09:23:52.442Z,1004.08
2018-01-15T09:24:52.414Z,1004.02
2018-01-15T09:26:45.802Z,1003.96
2018-01-15T09:27:45.707Z,1003.97
2018-01-15T09:29:39.633Z,1003.93
2018-01-15T09:30:39.002Z,1003.97
2018-01-15T09:32:32.356Z,1004.01
2018-01-15T09:33:32.309Z,1003.98
2018-01-15T09:35:25.642Z,1003.93
2018-01-15T09:36:25.612Z,1003.93
2018-01-15T09:38:18.947Z,1003.88
2018-01-15T09:39:18.905Z,1003.86
2018-01-15T09:41:12.228Z,1003.84
2018-01-15T09:42:12.205Z,1003.79
2018-01-15T09:44:05.541Z,1003.84
2018-01-15T09:45:05.507Z,1003.79
2018-01-15T09:46:58.825Z,1003.78
2018-01-15T09:47:58.800Z,1003.81
2018-01-15T09:49:51.644Z,1003.78
2018-01-15T09:50:51.600Z,1003.81
2018-01-15T09:52:44.424Z,1003.79
2018-01-15T09:53:44.409Z,1003.84
2018-01-15T09:55:37.742Z,1003.80
2018-01-15T09:56:37.702Z,1003.79
2018-01-15T09:58:31.024Z,1003.77
2018-01-15T09:59:30.998Z,1003.80
2018-01-15T10:01:24.398Z,1003.73
2018-01-15T10:02:24.296Z,1003.65
2018-01-15T10:04:17.725Z,1003.64
2018-01-15T10:05:17.588Z,1003.62
2018-01-15T10:07:10.929Z,1003.62
2018-01-15T10:08:10.891Z,1003.54
2018-01-15T10:10:04.212Z,1003.52
2018-01-15T10:11:04.178Z,1003.54
2018-01-15T10:12:57.510Z,1003.51
2018-01-15T10:13:57.479Z,1003.46
2018-01-15T10:15:50.802Z,1003.38
2018-01-15T10:16:50.773Z,1003.29
2018-01-15T10:18:44.109Z,1003.28
2018-01-15T10:19:44.073Z,1003.25
2018-01-15T10:21:37.395Z,1003.30
2018-01-15T10:22:37.369Z,1003.27
2018-01-15T10:24:30.704Z,1003.25
2018-01-15T10:25:30.664Z,1003.27
2018-01-15T10:27:23.983Z,1003.27
2018-01-15T10:28:23.959Z,1003.23
2018-01-15T10:30:17.302Z,1003.17
2018-01-15T10:31:17.265Z,1003.08
2018-01-15T10:33:10.582Z,1003.14
2018-01-15T10:34:10.549Z,1003.16
2018-01-15T10:36:03.887Z,1003.06
2018-01-15T10:37:03.840Z,1002.99
2018-01-15T10:38:57.182Z,1002.99
2018-01-15T10:39:57.148Z,1002.91
2018-01-15T10:41:50.498Z,1002.89
2018-01-15T10:42:50.449Z,1002.88
2018-01-15T10:44:43.775Z,1002.83
2018-01-15T10:45:43.752Z,1002.83
2018-01-15T10:47:37.102Z,1002.78
2018-01-15T10:48:37.051Z,1002.77
2018-01-15T10:50:30.379Z,1002.71
2018-01-15T10:51:30.345Z,1002.71
2018-01-15T10:53:23.710Z,1002.65
2018-01-15T10:54:23.663Z,1002.59
2018-01-15T10:56:16.996Z,1002.59
2018-01-15T10:57:16.975Z,1002.57
2018-01-15T10:59:10.303Z,1002.53
2018-01-15T11:00:10.267Z,1002.51
2018-01-15T11:02:03.585Z,1002.48
2018-01-15T11:03:03.565Z,1002.49
2018-01-15T11:04:56.899Z,1002.42
2018-01-15T11:05:56.854Z,1002.43
2018-01-15T11:07:50.219Z,1002.36
2018-01-15T11:08:50.159Z,1002.36
2018-01-15T11:10:43.517Z,1002.31
2018-01-15T11:11:43.474Z,1002.24
2018-01-15T11:13:36.886Z,1002.17
2018-01-15T11:14:36.772Z,1002.09
2018-01-15T11:16:30.121Z,1002.06
2018-01-15T11:17:30.074Z,1002.04
2018-01-15T11:19:23.400Z,1001.98
2018-01-15T11:20:23.376Z,1002.00
2018-01-15T11:22:16.719Z,1001.94
2018-01-15T11:23:16.678Z,1001.93
2018-01-15T11:25:09.999Z,1001.82
2018-01-15T11:26:09.977Z,1001.80
2018-01-15T11:28:03.312Z,1001.82
2018-01-15T11:29:03.270Z,1001.78
2018-01-15T11:30:56.604Z,1001.76
2018-01-15T11:31:56.566Z,1001.71
2018-01-15T11:33:49.910Z,1001.66
2018-01-15T11:34:49.867Z,1001.60
2018-01-15T11:36:43.180Z,1001.58
2018-01-15T11:37:43.173Z,1001.54
2018-01-15T11:39:36.499Z,1001.48
2018-01-15T11:40:36.465Z,1001.44
2018-01-15T11:42:29.800Z,1001.40
2018-01-15T11:43:29.763Z,1001.40
2018-01-15T11:45:23.103Z,1001.39
2018-01-15T11:46:23.059Z,1001.39
2018-01-15T11:48:16.415Z,1001.37
2018-01-15T11:49:16.360Z,1001.39
2018-01-15T11:51:09.710Z,1001.38
2018-01-15T11:52:09.669Z,1001.34
2018-01-15T11:54:02.992Z,1001.22
2018-01-15T11:55:02.960Z,1001.20
2018-01-15T11:56:56.310Z,1001.11
2018-01-15T11:57:56.275Z,1001.17
2018-01-15T11:59:49.593Z,1001.09
2018-01-15T12:00:49.576Z,1001.11
2018-01-15T12:02:42.909Z,1001.04
2018-01-15T12:03:42.878Z,1001.04
2018-01-15T12:05:36.209Z,1000.95
2018-01-15T12:06:36.178Z,1000.97
2018-01-15T12:08:29.513Z,1000.94
2018-01-15T12:09:29.474Z,1000.88
2018-01-15T12:11:22.819Z,1000.81
2018-01-15T12:12:22.798Z,1000.80
2018-01-15T12:14:16.129Z,1000.79
2018-01-15T12:15:16.085Z,1000.77
2018-01-15T12:17:09.413Z,1000.74
2018-01-15T12:18:09.395Z,1000.74
2018-01-15T12:20:02.730Z,1000.66
2018-01-15T12:21:02.733Z,1000.61
2018-01-15T12:22:56.016Z,1000.52
2018-01-15T12:23:55.982Z,1000.45
2018-01-15T12:25:49.349Z,1000.41
2018-01-15T12:26:49.291Z,1000.37
2018-01-15T12:28:42.633Z,1000.33
2018-01-15T12:29:42.598Z,1000.31
2018-01-15T12:31:35.948Z,1000.28
2018-01-15T12:32:35.901Z,1000.26
2018-01-15T12:34:29.222Z,1000.22
2018-01-15T12:35:29.201Z,1000.14
2018-01-15T12:37:22.540Z,1000.07
2018-01-15T12:38:22.502Z,1000.08
2018-01-15T12:40:15.842Z,999.99
2018-01-15T12:41:15.823Z,999.94
2018-01-15T12:43:09.157Z,999.82
2018-01-15T12:44:09.129Z,999.83
2018-01-15T12:46:02.439Z,999.81
2018-01-15T12:47:02.424Z,999.81
2018-01-15T12:48:55.754Z,999.84
2018-01-15T12:49:55.715Z,999.84
2018-01-15T12:51:49.050Z,999.80
2018-01-15T12:52:49.018Z,999.78
2018-01-15T12:54:42.370Z,999.71
2018-01-15T12:55:42.322Z,999.68
2018-01-15T12:57:35.652Z,999.66
2018-01-15T12:58:35.627Z,999.62
2018-01-15T13:00:28.974Z,999.56
2018-01-15T13:01:28.923Z,999.54
2018-01-15T13:03:22.358Z,999.49
2018-01-15T13:04:22.318Z,999.48
2018-01-15T13:06:15.696Z,999.37
2018-01-15T13:07:15.704Z,999.18
2018-01-15T13:09:08.951Z,999.12
2018-01-15T13:10:08.905Z,999.07
2018-01-15T13:12:02.254Z,999.04
2018-01-15T13:13:02.217Z,999.10
2018-01-15T13:14:55.542Z,999.12
2018-01-15T13:15:55.518Z,999.05
2018-01-15T13:17:48.858Z,998.92
2018-01-15T13:18:48.820Z,998.86
2018-01-15T13:20:42.147Z,998.84
2018-01-15T13:21:42.124Z,998.82
2018-01-15T13:23:35.521Z,998.75
2018-01-15T13:24:35.423Z,998.66
2018-01-15T13:26:28.742Z,998.63
2018-01-15T13:27:28.713Z,998.63
2018-01-15T13:29:22.064Z,998.69
2018-01-15T13:30:22.021Z,998.68
2018-01-15T13:32:15.353Z,998.62
2018-01-15T13:33:15.330Z,998.64
2018-01-15T13:35:08.680Z,998.59
2018-01-15T13:36:08.652Z,998.55
2018-01-15T13:38:01.982Z,998.55
2018-01-15T13:39:01.947Z,998.54
2018-01-15T13:40:55.284Z,998.49
2018-01-15T13:41:55.249Z,998.48
2018-01-15T13:43:48.571Z,998.45
2018-01-15T13:44:48.557Z,998.43
2018-01-15T13:46:41.897Z,998.36
2018-01-15T13:47:41.864Z,998.33
2018-01-15T13:49:35.187Z,998.31
2018-01-15T13:50:35.161Z,998.22
2018-01-15T13:52:28.497Z,998.23
2018-01-15T13:53:28.498Z,998.21
2018-01-15T13:55:21.787Z,998.12
2018-01-15T13:56:21.757Z,998.08
2018-01-15T13:58:15.103Z,998.06
2018-01-15T13:59:15.059Z,998.02
2018-01-15T14:01:08.393Z,997.95
2018-01-15T14:02:08.372Z,997.99
2018-01-15T14:04:01.713Z,997.90
2018-01-15T14:05:01.675Z,997.88
2018-01-15T14:06:55.010Z,997.80
2018-01-15T14:07:55.018Z,997.78
2018-01-15T14:09:49.326Z,997.71
2018-01-15T14:10:49.284Z,997.63
2018-01-15T14:12:42.615Z,997.58
2018-01-15T14:13:42.585Z,997.51
2018-01-15T14:15:35.952Z,997.39
2018-01-15T14:16:35.918Z,997.34
2018-01-15T14:18:29.239Z,997.19
2018-01-15T14:19:29.216Z,997.18
2018-01-15T14:21:22.564Z,997.04
2018-01-15T14:22:22.524Z,997.06
2018-01-15T14:24:15.862Z,996.93
2018-01-15T14:25:15.831Z,996.88
2018-01-15T14:27:09.172Z,996.75
2018-01-15T14:28:09.136Z,996.72
2018-01-15T14:30:02.463Z,996.66
2018-01-15T14:31:02.436Z,996.57
2018-01-15T14:32:55.783Z,996.49
2018-01-15T14:33:55.756Z,996.34
2018-01-15T14:35:49.095Z,996.27
2018-01-15T14:36:49.053Z,996.25
2018-01-15T14:38:42.407Z,996.19
2018-01-15T14:39:42.366Z,996.13
2018-01-15T14:41:35.679Z,996.11
2018-01-15T14:42:35.675Z,996.10
2018-01-15T14:44:29.018Z,996.10
2018-01-15T14:45:28.960Z,995.99
2018-01-15T14:47:22.277Z,995.97
2018-01-15T14:48:22.261Z,995.90
2018-01-15T14:50:15.706Z,995.89
2018-01-15T14:51:15.592Z,995.82
2018-01-15T14:53:08.881Z,995.81
2018-01-15T14:54:08.865Z,995.77
2018-01-15T14:56:02.215Z,995.73
2018-01-15T14:57:02.172Z,995.66
2018-01-15T14:58:55.494Z,995.52
2018-01-15T14:59:55.473Z,995.48
2018-01-15T15:01:48.823Z,995.36
2018-01-15T15:02:48.780Z,995.31
2018-01-15T15:04:42.107Z,995.29
2018-01-15T15:05:42.086Z,995.22
2018-01-15T15:07:35.441Z,995.15
2018-01-15T15:08:35.404Z,995.13
2018-01-15T15:10:28.730Z,995.11
2018-01-15T15:11:28.709Z,995.06
2018-01-15T15:13:22.651Z,995.09
2018-01-15T15:14:22.044Z,995.17
2018-01-15T15:16:15.342Z,995.11
2018-01-15T15:17:15.368Z,995.13
2018-01-15T15:19:08.651Z,995.04
2018-01-15T15:20:08.620Z,994.97
2018-01-15T15:22:01.942Z,994.97
2018-01-15T15:23:01.923Z,994.96
2018-01-15T15:24:55.256Z,994.90
2018-01-15T15:25:55.210Z,994.92
2018-01-15T15:27:48.555Z,994.89
2018-01-15T15:28:48.516Z,994.91
2018-01-15T15:30:41.850Z,994.90
2018-01-15T15:31:41.820Z,994.88
2018-01-15T15:33:35.146Z,994.92
2018-01-15T15:34:35.122Z,994.89
2018-01-15T15:36:28.478Z,994.93
2018-01-15T15:37:28.453Z,994.94
2018-01-15T15:39:21.760Z,994.84
2018-01-15T15:40:21.744Z,994.84
2018-01-15T15:42:15.083Z,994.87
2018-01-15T15:43:15.043Z,994.86
2018-01-15T15:45:08.379Z,994.79
2018-01-15T15:46:08.371Z,994.84
2018-01-15T15:48:01.690Z,994.80
2018-01-15T15:49:01.637Z,994.83
2018-01-15T15:50:54.972Z,994.86
2018-01-15T15:51:54.951Z,994.83
2018-01-15T15:53:48.284Z,994.82
2018-01-15T15:54:48.239Z,994.76
2018-01-15T15:56:41.077Z,994.75
2018-01-15T15:57:41.047Z,994.78
2018-01-15T15:59:33.930Z,994.69
2018-01-15T16:00:33.865Z,994.64
2018-01-15T16:02:26.701Z,994.64
2018-01-15T16:03:26.675Z,994.56
2018-01-15T16:05:20.011Z,994.56
2018-01-15T16:06:19.971Z,994.63
2018-01-15T16:08:13.340Z,994.54
2018-01-15T16:09:13.292Z,994.50
2018-01-15T16:11:06.216Z,994.51
2018-01-15T16:12:06.103Z,994.41
2018-01-15T16:13:59.433Z,994.32
2018-01-15T16:14:59.404Z,994.28
2018-01-15T16:16:52.748Z,994.40
2018-01-15T16:17:52.711Z,994.34
2018-01-15T16:19:46.057Z,994.46
2018-01-15T16:20:46.038Z,994.28
2018-01-15T16:22:39.409Z,994.28
2018-01-15T16:23:39.331Z,994.30
2018-01-15T16:25:32.660Z,994.28
2018-01-15T16:26:32.636Z,994.31
2018-01-15T16:28:25.977Z,994.30
2018-01-15T16:29:25.934Z,994.28
2018-01-15T16:31:19.278Z,994.24
2018-01-15T16:32:19.248Z,994.09
2018-01-15T16:34:12.586Z,994.06
2018-01-15T16:35:12.560Z,993.95
2018-01-15T16:37:05.391Z,993.96
2018-01-15T16:38:05.353Z,993.92
2018-01-15T16:39:58.687Z,993.96
2018-01-15T16:40:58.665Z,993.79
2018-01-15T16:42:51.973Z,993.81
2018-01-15T16:43:51.951Z,993.70
2018-01-15T16:45:45.300Z,993.75
2018-01-15T16:46:45.264Z,993.61
2018-01-15T16:48:38.588Z,993.59
2018-01-15T16:49:38.568Z,993.60
2018-01-15T16:51:31.914Z,993.46
2018-01-15T16:52:31.872Z,993.52
2018-01-15T16:54:25.186Z,993.53
2018-01-15T16:55:25.171Z,993.35
2018-01-15T16:57:18.524Z,993.25
2018-01-15T16:58:18.480Z,993.19
2018-01-15T17:00:11.808Z,993.21
2018-01-15T17:01:11.792Z,993.13
2018-01-15T17:03:05.163Z,993.10
2018-01-15T17:04:05.093Z,992.94
2018-01-15T17:05:58.433Z,992.98
2018-01-15T17:06:58.412Z,992.92
2018-01-15T17:08:51.849Z,992.92
2018-01-15T17:09:51.707Z,992.81
2018-01-15T17:11:44.565Z,992.76
2018-01-15T17:12:44.521Z,992.68
2018-01-15T17:14:37.608Z,992.57
2018-01-15T17:15:37.529Z,992.59
2018-01-15T17:17:30.850Z,992.59
2018-01-15T17:18:30.831Z,992.62
2018-01-15T17:20:24.175Z,992.47
2018-01-15T17:21:24.139Z,992.44
2018-01-15T17:23:17.465Z,992.67
2018-01-15T17:24:17.444Z,992.49
2018-01-15T17:26:10.297Z,992.48
2018-01-15T17:27:10.249Z,992.62
2018-01-15T17:29:03.576Z,992.65
2018-01-15T17:30:03.549Z,992.55
2018-01-15T17:31:56.906Z,992.54
2018-01-15T17:32:56.868Z,992.55
2018-01-15T17:34:50.224Z,992.53
2018-01-15T17:35:50.193Z,992.53
2018-01-15T17:37:43.529Z,992.45
2018-01-15T17:38:43.490Z,992.43